Time;durP1;ratioP1;P1;durP2;ratioP2;P2;SDS_P1;SDS_P2;PMS_P1;PMS_P2;Temp;Humidity;BMP_temperature;BMP_pressure;BME280_temperature;BME280_humidity;BME280_pressure;Samples;Min_cycle;Max_cycle;Signal;HPM_P1;HPM_P2
2021/01/04 00:01:39;;;;;;;5.32;2.92;;;;;;;;;;6080621;29;20088;-72
2021/01/04 00:05:05;;;;;;;4.65;3.00;;;;;;;;;;6069394;29;20048;-69
2021/01/04 00:08:28;;;;;;;175.13;90.20;;;;;;;;;;5376844;29;10000652;-69
2021/01/04 00:11:43;;;;;;;107.07;57.67;;;;;;;;;;6058569;29;20080;-68
2021/01/04 00:14:52;;;;;;;28.75;16.40;;;;;;;;;;6085157;29;20180;-69
2021/01/04 00:18:24;;;;;;;24.85;13.48;;;;;;;;;;6080113;29;20060;-69
2021/01/04 00:21:30;;;;;;;76.53;36.03;;;;;;;;;;6073772;29;20066;-70
2021/01/04 00:24:40;;;;;;;26.30;13.80;;;;;;;;;;6066615;29;20396;-73
2021/01/04 00:27:44;;;;;;;5.38;3.70;;;;;;;;;;6083738;29;20056;-70
2021/01/04 00:30:50;;;;;;;7.38;3.30;;;;;;;;;;6075353;29;20055;-69
2021/01/04 00:33:54;;;;;;;3.85;2.85;;;;;;;;;;6078213;29;20056;-74
2021/01/04 00:37:07;;;;;;;4.07;3.08;;;;;;;;;;6081568;29;20103;-67
2021/01/04 00:40:17;;;;;;;4.35;3.08;;;;;;;;;;6079380;29;20040;-67
2021/01/04 00:43:22;;;;;;;5.07;2.90;;;;;;;;;;6087438;29;20132;-69
2021/01/04 00:46:26;;;;;;;5.93;2.72;;;;;;;;;;6078922;29;20168;-69
2021/01/04 00:49:29;;;;;;;4.32;2.75;;;;;;;;;;6077138;29;20068;-71
2021/01/04 00:52:36;;;;;;;3.90;2.87;;;;;;;;;;6075034;29;20048;-69
2021/01/04 00:55:51;;;;;;;6.43;3.33;;;;;;;;;;6069590;29;20856;-68
2021/01/04 00:59:05;;;;;;;6.10;3.90;;;;;;;;;;6065620;29;20041;-71
2021/01/04 01:02:37;;;;;;;4.72;3.83;;;;;;;;;;6067925;29;20461;-69
2021/01/04 01:05:44;;;;;;;6.30;4.40;;;;;;;;;;6068784;29;20066;-73
2021/01/04 01:08:45;;;;;;;6.70;4.28;;;;;;;;;;6072966;29;20076;-69
2021/01/04 01:12:12;;;;;;;5.68;4.35;;;;;;;;;;6070938;29;20423;-71
2021/01/04 01:15:22;;;;;;;6.15;5.18;;;;;;;;;;6074184;29;20060;-70
2021/01/04 01:18:33;;;;;;;6.13;4.35;;;;;;;;;;6078196;29;20472;-69
2021/01/04 01:21:34;;;;;;;7.07;4.60;;;;;;;;;;6071191;29;20059;-69
2021/01/04 01:24:35;;;;;;;8.10;5.25;;;;;;;;;;6074618;29;20049;-70
2021/01/04 01:27:50;;;;;;;9.00;4.70;;;;;;;;;;6075229;29;20044;-68
2021/01/04 01:31:06;;;;;;;8.23;5.65;;;;;;;;;;6071561;29;20044;-67
2021/01/04 01:34:26;;;;;;;5.47;4.50;;;;;;;;;;6067733;29;20547;-74
2021/01/04 01:37:41;;;;;;;5.20;4.38;;;;;;;;;;6071464;29;20067;-70
2021/01/04 01:41:20;;;;;;;7.90;4.53;;;;;;;;;;6073885;29;20049;-70
2021/01/04 01:44:27;;;;;;;8.00;5.50;;;;;;;;;;6046821;29;20072;-74
2021/01/04 01:47:32;;;;;;;7.28;5.40;;;;;;;;;;6074183;29;20132;-70
2021/01/04 01:50:40;;;;;;;6.55;5.22;;;;;;;;;;6075499;29;20041;-69
2021/01/04 01:53:52;;;;;;;7.88;5.68;;;;;;;;;;6071984;29;20056;-70
2021/01/04 01:57:05;;;;;;;7.38;4.97;;;;;;;;;;6071074;29;20160;-68
2021/01/04 02:00:16;;;;;;;8.15;5.15;;;;;;;;;;6068177;29;20048;-68
2021/01/04 02:03:24;;;;;;;8.13;5.68;;;;;;;;;;6067322;29;20427;-72
2021/01/04 02:06:53;;;;;;;7.80;5.38;;;;;;;;;;6069994;29;20092;-69
2021/01/04 02:09:56;;;;;;;8.45;5.65;;;;;;;;;;6056823;29;20053;-69
2021/01/04 02:13:05;;;;;;;7.80;5.77;;;;;;;;;;6070089;29;20083;-70
2021/01/04 02:16:12;;;;;;;7.97;6.13;;;;;;;;;;6071741;29;20551;-70
2021/01/04 02:19:26;;;;;;;8.75;6.03;;;;;;;;;;6074210;29;20048;-73
2021/01/04 02:22:46;;;;;;;7.75;5.82;;;;;;;;;;6067611;29;20147;-68
2021/01/04 02:25:50;;;;;;;7.18;5.40;;;;;;;;;;6069724;29;20063;-71
2021/01/04 02:28:56;;;;;;;7.35;5.45;;;;;;;;;;6073019;29;20051;-69
2021/01/04 02:32:00;;;;;;;8.70;5.63;;;;;;;;;;6071560;29;20057;-69
2021/01/04 02:35:01;;;;;;;5.93;4.83;;;;;;;;;;6070545;29;20104;-70
2021/01/04 02:38:02;;;;;;;6.18;4.95;;;;;;;;;;6075318;29;20139;-70
2021/01/04 02:41:04;;;;;;;6.88;5.30;;;;;;;;;;6074063;29;20132;-70
2021/01/04 02:44:05;;;;;;;6.50;5.20;;;;;;;;;;6074246;29;20095;-70
2021/01/04 02:47:26;;;;;;;6.18;5.20;;;;;;;;;;6072281;29;20501;-69
2021/01/04 02:50:49;;;;;;;8.00;5.40;;;;;;;;;;6075710;29;20127;-71
2021/01/04 02:54:21;;;;;;;7.93;5.30;;;;;;;;;;6075677;29;20068;-68
2021/01/04 02:57:29;;;;;;;7.00;5.40;;;;;;;;;;6075372;29;20063;-70
2021/01/04 03:00:31;;;;;;;9.23;5.80;;;;;;;;;;6069650;29;20055;-71
2021/01/04 03:03:33;;;;;;;7.60;5.93;;;;;;;;;;6072933;29;20162;-67
2021/01/04 03:06:41;;;;;;;7.03;5.95;;;;;;;;;;6074348;29;20053;-67
2021/01/04 03:09:43;;;;;;;8.57;6.18;;;;;;;;;;6067487;29;20044;-67
2021/01/04 03:12:53;;;;;;;7.55;6.57;;;;;;;;;;6069877;29;20058;-69
2021/01/04 03:16:03;;;;;;;9.88;7.18;;;;;;;;;;6071181;29;20052;-70
2021/01/04 03:19:09;;;;;;;7.55;6.03;;;;;;;;;;6072174;29;20048;-70
2021/01/04 03:22:14;;;;;;;9.63;6.68;;;;;;;;;;6068068;29;20172;-69
2021/01/04 03:25:22;;;;;;;10.50;6.93;;;;;;;;;;6071307;29;20056;-69
2021/01/04 03:28:26;;;;;;;9.93;6.80;;;;;;;;;;6062950;29;20053;-68
2021/01/04 03:31:27;;;;;;;9.10;7.05;;;;;;;;;;6070706;29;20112;-69
2021/01/04 03:34:28;;;;;;;10.65;7.15;;;;;;;;;;6071653;29;20060;-71
2021/01/04 03:37:29;;;;;;;7.80;6.55;;;;;;;;;;6078796;29;20055;-68
2021/01/04 03:40:30;;;;;;;11.02;7.93;;;;;;;;;;6075851;29;20049;-69
2021/01/04 03:43:32;;;;;;;9.73;7.05;;;;;;;;;;6073397;29;20135;-69
2021/01/04 03:46:33;;;;;;;10.23;7.22;;;;;;;;;;6074320;29;20048;-68
2021/01/04 03:49:36;;;;;;;11.30;7.80;;;;;;;;;;6078821;29;20127;-68
2021/01/04 03:52:37;;;;;;;9.13;7.25;;;;;;;;;;6076390;29;20044;-70
2021/01/04 03:55:39;;;;;;;12.38;7.97;;;;;;;;;;6078210;29;20052;-69
2021/01/04 03:58:40;;;;;;;9.30;7.72;;;;;;;;;;6074895;29;20208;-72
2021/01/04 04:01:47;;;;;;;9.50;7.22;;;;;;;;;;6074972;29;20060;-72
2021/01/04 04:04:48;;;;;;;11.63;7.80;;;;;;;;;;6079497;29;20540;-68
2021/01/04 04:07:49;;;;;;;9.95;7.85;;;;;;;;;;6074162;29;20133;-67
2021/01/04 04:10:50;;;;;;;11.05;7.60;;;;;;;;;;6074307;29;20069;-68
2021/01/04 04:13:52;;;;;;;11.45;7.95;;;;;;;;;;6074071;29;20469;-67
2021/01/04 04:16:53;;;;;;;10.05;7.60;;;;;;;;;;6076837;29;20062;-67
2021/01/04 04:19:54;;;;;;;11.95;7.70;;;;;;;;;;6074949;29;20045;-66
2021/01/04 04:22:56;;;;;;;11.13;7.50;;;;;;;;;;6077848;29;20165;-67
2021/01/04 04:25:57;;;;;;;8.23;6.53;;;;;;;;;;6075274;29;20041;-75
2021/01/04 04:28:59;;;;;;;8.48;7.07;;;;;;;;;;6076446;29;20057;-71
2021/01/04 04:32:00;;;;;;;10.90;8.07;;;;;;;;;;6075728;29;20049;-70
2021/01/04 04:35:01;;;;;;;10.02;7.70;;;;;;;;;;6077151;29;20165;-69
2021/01/04 04:38:02;;;;;;;10.13;7.60;;;;;;;;;;6071538;29;20058;-69
2021/01/04 04:41:04;;;;;;;11.57;7.75;;;;;;;;;;6073131;29;20132;-69
2021/01/04 04:44:08;;;;;;;10.15;8.10;;;;;;;;;;6073233;29;20136;-69
2021/01/04 04:47:21;;;;;;;11.98;7.13;;;;;;;;;;6076375;29;20053;-69
2021/01/04 04:50:34;;;;;;;9.40;6.75;;;;;;;;;;6075873;29;20176;-71
2021/01/04 04:53:58;;;;;;;10.25;7.63;;;;;;;;;;6077229;29;20520;-69
2021/01/04 04:57:10;;;;;;;9.05;6.80;;;;;;;;;;6073805;29;20041;-68
2021/01/04 05:00:25;;;;;;;9.82;6.72;;;;;;;;;;6073130;29;20476;-69
2021/01/04 05:03:37;;;;;;;8.30;6.38;;;;;;;;;;6064322;29;20059;-68
2021/01/04 05:06:44;;;;;;;11.10;7.10;;;;;;;;;;6071927;29;20036;-69
2021/01/04 05:09:54;;;;;;;11.50;7.80;;;;;;;;;;6069820;29;20051;-69
2021/01/04 05:13:01;;;;;;;9.73;7.22;;;;;;;;;;6061854;29;20056;-70
2021/01/04 05:16:05;;;;;;;10.25;7.55;;;;;;;;;;6066565;29;20045;-70
2021/01/04 05:19:27;;;;;;;12.30;8.00;;;;;;;;;;6069908;29;20135;-69
2021/01/04 05:22:43;;;;;;;10.23;7.90;;;;;;;;;;6069383;29;20071;-69
2021/01/04 05:26:18;;;;;;;11.27;7.65;;;;;;;;;;6062500;29;20143;-71
2021/01/04 05:29:46;;;;;;;;;;;;;;;;;;6070552;29;20780;-70
2021/01/04 05:33:11;;;;;;;9.90;7.65;;;;;;;;;;6071771;29;19945;-71
2021/01/04 05:36:24;;;;;;;11.57;7.75;;;;;;;;;;6072475;29;20172;-71
2021/01/04 05:39:39;;;;;;;10.68;7.88;;;;;;;;;;6071929;29;20157;-69
2021/01/04 05:42:49;;;;;;;10.10;7.35;;;;;;;;;;6068597;29;20068;-70
2021/01/04 05:45:54;;;;;;;10.80;7.65;;;;;;;;;;6070748;29;20053;-69
2021/01/04 05:49:03;;;;;;;11.43;7.88;;;;;;;;;;6073163;29;20495;-68
2021/01/04 05:52:07;;;;;;;12.52;7.43;;;;;;;;;;6070107;29;20048;-69
2021/01/04 05:55:10;;;;;;;10.38;7.47;;;;;;;;;;6074172;29;20273;-70
2021/01/04 05:58:14;;;;;;;10.40;7.22;;;;;;;;;;6071068;29;20057;-68
2021/01/04 06:01:16;;;;;;;10.82;8.30;;;;;;;;;;6071053;29;20609;-68
2021/01/04 06:04:25;;;;;;;14.05;8.35;;;;;;;;;;6070440;29;20044;-70
2021/01/04 06:07:26;;;;;;;12.02;8.05;;;;;;;;;;6066665;29;20088;-68
2021/01/04 06:10:30;;;;;;;10.52;8.52;;;;;;;;;;6065030;29;20040;-72
2021/01/04 06:13:36;;;;;;;14.90;9.52;;;;;;;;;;6069532;29;20594;-69
2021/01/04 06:16:44;;;;;;;13.13;9.02;;;;;;;;;;6065270;29;20058;-68
2021/01/04 06:19:52;;;;;;;14.30;9.65;;;;;;;;;;6074314;29;20135;-69
2021/01/04 06:22:53;;;;;;;13.02;8.45;;;;;;;;;;6054502;29;20792;-69
2021/01/04 06:25:55;;;;;;;13.82;8.68;;;;;;;;;;6075882;29;20059;-69
2021/01/04 06:28:59;;;;;;;12.48;8.65;;;;;;;;;;6075247;29;20041;-69
2021/01/04 06:32:00;;;;;;;;;;;;;;;;;;6070206;29;20055;-69
2021/01/04 06:35:05;;;;;;;10.50;8.25;;;;;;;;;;6067398;29;20342;-70
2021/01/04 06:38:12;;;;;;;12.32;7.97;;;;;;;;;;6064507;29;20055;-68
2021/01/04 06:41:16;;;;;;;13.23;7.80;;;;;;;;;;6065655;29;20966;-68
2021/01/04 06:44:19;;;;;;;11.52;7.53;;;;;;;;;;6064266;29;20058;-69
2021/01/04 06:47:57;;;;;;;11.27;7.90;;;;;;;;;;6066938;29;21128;-69
2021/01/04 06:51:10;;;;;;;12.05;7.95;;;;;;;;;;6065963;29;20044;-70
2021/01/04 06:54:45;;;;;;;13.57;8.60;;;;;;;;;;6063598;29;20400;-70
2021/01/04 06:58:03;;;;;;;11.07;8.27;;;;;;;;;;6046093;29;20044;-69
2021/01/04 07:01:20;;;;;;;12.25;8.15;;;;;;;;;;6065853;29;21692;-70
2021/01/04 07:04:39;;;;;;;12.05;7.72;;;;;;;;;;6066800;29;20044;-70
2021/01/04 07:07:53;;;;;;;12.18;8.10;;;;;;;;;;6067204;29;20240;-69
2021/01/04 07:11:03;;;;;;;13.27;7.45;;;;;;;;;;6071638;29;20059;-69
2021/01/04 07:14:47;;;;;;;13.80;7.82;;;;;;;;;;6071173;29;20128;-71
2021/01/04 07:18:00;;;;;;;12.43;7.60;;;;;;;;;;6058512;29;20045;-71
2021/01/04 07:21:10;;;;;;;10.77;7.22;;;;;;;;;;6066918;29;20048;-69
2021/01/04 07:24:22;;;;;;;10.55;7.85;;;;;;;;;;6068626;29;20055;-69
2021/01/04 07:27:36;;;;;;;14.32;8.27;;;;;;;;;;6081851;29;20048;-69
2021/01/04 07:30:51;;;;;;;10.93;7.60;;;;;;;;;;6073009;29;20192;-69
2021/01/04 07:33:55;;;;;;;13.10;8.23;;;;;;;;;;6068181;29;20140;-69
2021/01/04 07:37:02;;;;;;;13.88;7.53;;;;;;;;;;6069791;29;20049;-68
2021/01/04 07:40:15;;;;;;;10.55;7.68;;;;;;;;;;6068845;29;20453;-69
2021/01/04 07:43:40;;;;;;;9.70;7.47;;;;;;;;;;6074394;29;20095;-69
2021/01/04 07:47:06;;;;;;;10.45;7.20;;;;;;;;;;6069523;29;20048;-69
2021/01/04 07:50:24;;;;;;;11.15;7.70;;;;;;;;;;6074020;29;20112;-69
2021/01/04 07:54:06;;;;;;;14.55;9.07;;;;;;;;;;6071674;29;20408;-69
2021/01/04 07:57:38;;;;;;;13.77;9.52;;;;;;;;;;6069926;29;20052;-71
2021/01/04 08:01:23;;;;;;;16.13;9.10;;;;;;;;;;6071074;29;20448;-70
2021/01/04 08:04:38;;;;;;;11.82;7.80;;;;;;;;;;6071949;29;20056;-69
2021/01/04 08:08:04;;;;;;;15.10;9.55;;;;;;;;;;6072374;29;20067;-69
2021/01/04 08:11:47;;;;;;;11.13;7.80;;;;;;;;;;6063156;29;20052;-70
2021/01/04 08:15:17;;;;;;;13.85;8.52;;;;;;;;;;6071823;29;20053;-70
2021/01/04 08:18:20;;;;;;;15.50;9.05;;;;;;;;;;6070387;29;20053;-70
2021/01/04 08:21:29;;;;;;;12.90;8.80;;;;;;;;;;6069015;29;20052;-70
2021/01/04 08:24:34;;;;;;;11.52;7.60;;;;;;;;;;6071647;29;20436;-70
2021/01/04 08:27:50;;;;;;;11.25;8.48;;;;;;;;;;6068136;29;20099;-73
2021/01/04 08:30:56;;;;;;;14.13;9.45;;;;;;;;;;6075515;29;20068;-71
2021/01/04 08:33:59;;;;;;;14.60;9.85;;;;;;;;;;6071639;29;20064;-71
2021/01/04 08:37:00;;;;;;;13.45;9.52;;;;;;;;;;6045683;29;20084;-71
2021/01/04 08:40:13;;;;;;;13.48;8.32;;;;;;;;;;6074742;29;20052;-70
2021/01/04 08:43:14;;;;;;;7.88;6.03;;;;;;;;;;6069109;29;20059;-69
2021/01/04 08:46:26;;;;;;;5.90;4.57;;;;;;;;;;6072269;29;20723;-70
2021/01/04 08:49:39;;;;;;;9.60;5.18;;;;;;;;;;6074634;29;20083;-70
2021/01/04 08:52:47;;;;;;;8.43;4.13;;;;;;;;;;6068073;29;20086;-71
2021/01/04 08:55:49;;;;;;;5.13;3.47;;;;;;;;;;6071739;29;20659;-71
2021/01/04 08:58:51;;;;;;;5.95;3.47;;;;;;;;;;6057332;29;20131;-70
2021/01/04 09:01:56;;;;;;;4.85;3.30;;;;;;;;;;6059154;29;20065;-70
2021/01/04 09:05:02;;;;;;;6.22;3.03;;;;;;;;;;6068369;29;20041;-70
2021/01/04 09:08:05;;;;;;;5.28;3.33;;;;;;;;;;6068083;29;20051;-71
2021/01/04 09:11:07;;;;;;;5.60;3.20;;;;;;;;;;6068853;29;20167;-69
2021/01/04 09:14:18;;;;;;;7.00;3.70;;;;;;;;;;6067587;29;20060;-72
2021/01/04 09:17:28;;;;;;;6.93;3.70;;;;;;;;;;6067860;29;20058;-73
2021/01/04 09:20:44;;;;;;;6.93;4.43;;;;;;;;;;6065231;29;20172;-71
2021/01/04 09:23:45;;;;;;;9.75;3.80;;;;;;;;;;6074047;29;20045;-71
2021/01/04 09:26:47;;;;;;;9.18;4.30;;;;;;;;;;6065003;29;20063;-70
2021/01/04 09:29:52;;;;;;;7.40;4.38;;;;;;;;;;6072153;29;20320;-70
2021/01/04 09:33:04;;;;;;;5.65;4.10;;;;;;;;;;6068179;29;20047;-69
2021/01/04 09:36:06;;;;;;;7.80;4.28;;;;;;;;;;6074250;29;20143;-74
2021/01/04 09:39:09;;;;;;;8.90;4.65;;;;;;;;;;6074018;29;20044;-72
2021/01/04 09:42:14;;;;;;;8.95;4.03;;;;;;;;;;6071400;29;20419;-70
2021/01/04 09:45:19;;;;;;;5.78;4.07;;;;;;;;;;6068966;29;20060;-70
2021/01/04 09:48:28;;;;;;;6.13;4.13;;;;;;;;;;6072665;29;20055;-71
2021/01/04 09:51:34;;;;;;;7.80;4.70;;;;;;;;;;6070489;29;20053;-72
2021/01/04 09:54:41;;;;;;;13.20;5.15;;;;;;;;;;6064282;29;20166;-70
2021/01/04 09:57:44;;;;;;;8.35;4.75;;;;;;;;;;6071369;29;20127;-72
2021/01/04 10:00:46;;;;;;;8.63;4.20;;;;;;;;;;6069020;29;20437;-71
2021/01/04 10:03:54;;;;;;;8.73;4.70;;;;;;;;;;6060397;29;20056;-72
2021/01/04 10:06:57;;;;;;;8.63;4.82;;;;;;;;;;6066832;29;20056;-75
2021/01/04 10:09:58;;;;;;;7.82;4.97;;;;;;;;;;6069793;29;20488;-73
2021/01/04 10:13:07;;;;;;;8.40;4.95;;;;;;;;;;6068590;29;20530;-70
2021/01/04 10:16:14;;;;;;;8.25;4.78;;;;;;;;;;6072007;29;20052;-72
2021/01/04 10:19:21;;;;;;;7.43;4.95;;;;;;;;;;6067769;29;20457;-71
2021/01/04 10:22:26;;;;;;;9.23;5.07;;;;;;;;;;6064204;29;20986;-70
2021/01/04 10:25:35;;;;;;;10.13;5.45;;;;;;;;;;6068682;29;20040;-72
2021/01/04 10:28:38;;;;;;;9.65;5.13;;;;;;;;;;6064483;29;20040;-70
2021/01/04 10:31:39;;;;;;;9.30;5.35;;;;;;;;;;6070456;29;20167;-71
2021/01/04 10:34:43;;;;;;;8.00;5.47;;;;;;;;;;6066331;29;20069;-71
2021/01/04 10:37:47;;;;;;;9.13;5.78;;;;;;;;;;6071634;29;20104;-71
2021/01/04 10:40:50;;;;;;;9.43;5.20;;;;;;;;;;6069547;29;20563;-71
2021/01/04 10:43:51;;;;;;;6.90;5.05;;;;;;;;;;6084704;29;20147;-70
2021/01/04 10:46:56;;;;;;;10.13;5.50;;;;;;;;;;6076467;29;20138;-71
2021/01/04 10:50:06;;;;;;;8.73;5.03;;;;;;;;;;6075134;29;20070;-73
2021/01/04 10:53:09;;;;;;;10.40;4.63;;;;;;;;;;6069877;29;20111;-73
2021/01/04 10:56:23;;;;;;;7.80;4.78;;;;;;;;;;6070289;29;20108;-71
2021/01/04 10:59:33;;;;;;;9.77;5.38;;;;;;;;;;6079647;29;20053;-72
2021/01/04 11:02:38;;;;;;;8.13;5.43;;;;;;;;;;6067625;29;20052;-70
2021/01/04 11:05:42;;;;;;;8.98;5.57;;;;;;;;;;6074255;29;20048;-69
2021/01/04 11:08:43;;;;;;;7.68;5.18;;;;;;;;;;6073649;29;20045;-70
2021/01/04 11:11:46;;;;;;;8.75;5.70;;;;;;;;;;6070543;29;20079;-70
2021/01/04 11:14:53;;;;;;;9.65;5.95;;;;;;;;;;6073672;29;20478;-72
2021/01/04 11:18:02;;;;;;;8.63;5.57;;;;;;;;;;6074566;29;20123;-70
2021/01/04 11:21:04;;;;;;;10.20;6.20;;;;;;;;;;6072411;29;20059;-68
2021/01/04 11:24:07;;;;;;;7.60;5.72;;;;;;;;;;6074292;29;20092;-70
2021/01/04 11:27:08;;;;;;;9.00;5.85;;;;;;;;;;6076340;29;20049;-71
2021/01/04 11:30:10;;;;;;;8.05;5.53;;;;;;;;;;6074454;29;20048;-71
2021/01/04 11:33:15;;;;;;;12.05;5.88;;;;;;;;;;6076979;29;20454;-71
2021/01/04 11:36:17;;;;;;;9.65;5.60;;;;;;;;;;6076353;29;20567;-69
2021/01/04 11:39:19;;;;;;;8.40;4.50;;;;;;;;;;6072499;29;20500;-70
2021/01/04 11:42:21;;;;;;;7.70;3.97;;;;;;;;;;6078467;29;20067;-69
2021/01/04 11:45:22;;;;;;;5.88;3.35;;;;;;;;;;6078425;29;20056;-69
2021/01/04 11:48:24;;;;;;;5.97;3.53;;;;;;;;;;6073166;29;20056;-69
2021/01/04 11:51:27;;;;;;;4.53;3.42;;;;;;;;;;6076693;29;20048;-70
2021/01/04 11:54:28;;;;;;;6.50;3.80;;;;;;;;;;6072816;29;20087;-69
2021/01/04 11:57:29;;;;;;;6.57;3.42;;;;;;;;;;6075316;29;20508;-73
2021/01/04 12:00:30;;;;;;;6.82;4.22;;;;;;;;;;6071431;29;20056;-71
2021/01/04 12:03:31;;;;;;;6.28;3.88;;;;;;;;;;6071230;29;20520;-71
2021/01/04 12:06:34;;;;;;;6.03;3.67;;;;;;;;;;6068397;29;20052;-69
2021/01/04 12:09:35;;;;;;;5.43;3.25;;;;;;;;;;6072165;29;20087;-69
2021/01/04 12:12:36;;;;;;;5.65;2.90;;;;;;;;;;6072828;29;20053;-69
2021/01/04 12:15:38;;;;;;;6.72;2.85;;;;;;;;;;6073171;29;20508;-68
2021/01/04 12:18:39;;;;;;;3.10;2.38;;;;;;;;;;6069570;29;20400;-70
2021/01/04 12:21:41;;;;;;;3.90;2.42;;;;;;;;;;6072444;29;20049;-69
2021/01/04 12:24:45;;;;;;;3.53;2.22;;;;;;;;;;6073197;29;20048;-71
2021/01/04 12:27:46;;;;;;;3.72;2.28;;;;;;;;;;6074818;29;20072;-73
2021/01/04 12:30:47;;;;;;;3.83;2.30;;;;;;;;;;6067509;29;20139;-70
2021/01/04 12:33:49;;;;;;;4.93;2.67;;;;;;;;;;6068185;29;20048;-74
2021/01/04 12:36:51;;;;;;;5.40;2.50;;;;;;;;;;6071122;29;20051;-72
2021/01/04 12:39:52;;;;;;;4.05;2.80;;;;;;;;;;6073952;29;20132;-71
2021/01/04 12:42:54;;;;;;;4.93;2.80;;;;;;;;;;6076280;29;20044;-71
2021/01/04 12:45:55;;;;;;;8.10;3.63;;;;;;;;;;6067467;29;21808;-72
2021/01/04 12:48:56;;;;;;;5.75;3.22;;;;;;;;;;6079618;29;20454;-70
2021/01/04 12:51:59;;;;;;;6.72;3.40;;;;;;;;;;6078775;29;20251;-72
2021/01/04 12:55:00;;;;;;;4.70;3.17;;;;;;;;;;6070216;29;20068;-71
2021/01/04 12:58:05;;;;;;;4.90;3.45;;;;;;;;;;6071765;29;20787;-71
2021/01/04 13:01:06;;;;;;;5.53;3.10;;;;;;;;;;6069565;29;20473;-68
2021/01/04 13:04:07;;;;;;;4.75;3.17;;;;;;;;;;6072607;29;20672;-69
2021/01/04 13:07:10;;;;;;;6.95;3.65;;;;;;;;;;6070646;29;20059;-69
2021/01/04 13:10:12;;;;;;;6.20;3.72;;;;;;;;;;6070138;29;20056;-69
2021/01/04 13:13:13;;;;;;;6.55;3.45;;;;;;;;;;6071334;29;20240;-70
2021/01/04 13:16:14;;;;;;;7.95;4.10;;;;;;;;;;6071254;29;20103;-70
2021/01/04 13:19:16;;;;;;;6.18;4.05;;;;;;;;;;6064337;29;20135;-68
2021/01/04 13:22:19;;;;;;;6.93;3.85;;;;;;;;;;6059556;29;20491;-70
2021/01/04 13:25:20;;;;;;;6.60;4.25;;;;;;;;;;6062103;29;20140;-69
2021/01/04 13:28:21;;;;;;;6.88;4.28;;;;;;;;;;6071979;29;20066;-70
2021/01/04 13:31:23;;;;;;;5.70;3.58;;;;;;;;;;6076707;29;20048;-70
2021/01/04 13:34:25;;;;;;;5.32;3.70;;;;;;;;;;6074828;29;20052;-70
2021/01/04 13:37:27;;;;;;;6.03;3.67;;;;;;;;;;5733887;29;9999869;-69
2021/01/04 13:40:28;;;;;;;6.03;3.25;;;;;;;;;;6070812;29;20044;-68
2021/01/04 13:43:29;;;;;;;6.78;2.92;;;;;;;;;;6067157;29;20057;-69
2021/01/04 13:46:31;;;;;;;4.05;3.30;;;;;;;;;;6064389;29;20448;-69
2021/01/04 13:49:33;;;;;;;4.88;2.78;;;;;;;;;;6064974;29;20048;-69
2021/01/04 13:52:35;;;;;;;5.65;2.95;;;;;;;;;;5395820;29;10000496;-68
2021/01/04 13:55:36;;;;;;;5.38;3.00;;;;;;;;;;6072230;29;20671;-70
2021/01/04 13:58:37;;;;;;;6.35;3.30;;;;;;;;;;6067820;29;20059;-68
2021/01/04 14:01:38;;;;;;;5.18;2.70;;;;;;;;;;6063799;29;20116;-72
2021/01/04 14:04:40;;;;;;;3.97;2.83;;;;;;;;;;6071449;29;20139;-68
2021/01/04 14:07:42;;;;;;;7.13;3.42;;;;;;;;;;6071886;29;20083;-69
2021/01/04 14:10:43;;;;;;;4.53;2.65;;;;;;;;;;6069177;29;20135;-69
2021/01/04 14:13:44;;;;;;;3.97;2.60;;;;;;;;;;6065017;29;20049;-69
2021/01/04 14:16:45;;;;;;;4.13;2.60;;;;;;;;;;6063994;29;20049;-69
2021/01/04 14:19:47;;;;;;;5.22;2.90;;;;;;;;;;6070104;29;20072;-72
2021/01/04 14:22:49;;;;;;;6.47;2.83;;;;;;;;;;6067987;29;20056;-69
2021/01/04 14:25:50;;;;;;;4.43;2.88;;;;;;;;;;6064628;29;20071;-74
2021/01/04 14:28:52;;;;;;;5.53;3.38;;;;;;;;;;6071404;29;20048;-71
2021/01/04 14:31:53;;;;;;;5.65;3.28;;;;;;;;;;6068000;29;20459;-68
2021/01/04 14:34:54;;;;;;;5.70;3.63;;;;;;;;;;6068403;29;20532;-67
2021/01/04 14:37:56;;;;;;;5.40;3.60;;;;;;;;;;6070302;29;20135;-68
2021/01/04 14:40:57;;;;;;;5.53;3.67;;;;;;;;;;6068893;29;20052;-68
2021/01/04 14:43:59;;;;;;;5.45;3.83;;;;;;;;;;6066532;29;20092;-69
2021/01/04 14:47:01;;;;;;;5.85;3.85;;;;;;;;;;6064122;29;20084;-68
2021/01/04 14:50:04;;;;;;;5.45;4.22;;;;;;;;;;6064260;29;20124;-68
2021/01/04 14:53:05;;;;;;;5.78;3.80;;;;;;;;;;6062884;29;20076;-69
2021/01/04 14:56:07;;;;;;;6.25;3.90;;;;;;;;;;6071487;29;21001;-71
2021/01/04 14:59:08;;;;;;;7.82;4.97;;;;;;;;;;6045967;29;20041;-72
2021/01/04 15:02:09;;;;;;;8.30;5.30;;;;;;;;;;6075791;29;20136;-70
2021/01/04 15:05:11;;;;;;;8.82;5.00;;;;;;;;;;6068077;29;20143;-68
2021/01/04 15:08:13;;;;;;;6.38;4.47;;;;;;;;;;6068570;29;20052;-68
2021/01/04 15:11:15;;;;;;;7.55;5.00;;;;;;;;;;6073565;29;20502;-69
2021/01/04 15:14:16;;;;;;;7.97;5.85;;;;;;;;;;6072058;29;20455;-71
2021/01/04 15:17:17;;;;;;;13.50;5.63;;;;;;;;;;6066239;29;20056;-69
2021/01/04 15:20:19;;;;;;;8.82;5.15;;;;;;;;;;6062748;29;20045;-70
2021/01/04 15:23:22;;;;;;;9.65;5.72;;;;;;;;;;6058943;29;20052;-69
2021/01/04 15:26:23;;;;;;;9.65;5.80;;;;;;;;;;6068090;29;20083;-68
2021/01/04 15:29:27;;;;;;;8.77;5.82;;;;;;;;;;6076302;29;20788;-68
2021/01/04 15:32:28;;;;;;;10.53;6.20;;;;;;;;;;6070763;29;20056;-69
2021/01/04 15:35:29;;;;;;;11.63;6.53;;;;;;;;;;6068931;29;21238;-68
2021/01/04 15:38:31;;;;;;;7.78;6.00;;;;;;;;;;6070091;29;20048;-68
2021/01/04 15:41:32;;;;;;;9.85;6.15;;;;;;;;;;6069824;29;20116;-71
2021/01/04 15:44:33;;;;;;;11.52;6.88;;;;;;;;;;6070162;29;20488;-70
2021/01/04 15:47:34;;;;;;;11.68;6.95;;;;;;;;;;6072227;29;20067;-70
2021/01/04 15:50:35;;;;;;;10.57;6.65;;;;;;;;;;6084308;29;20469;-69
2021/01/04 15:53:38;;;;;;;11.50;7.47;;;;;;;;;;6073378;29;20049;-71
2021/01/04 15:56:39;;;;;;;9.10;7.32;;;;;;;;;;6073761;29;20044;-69
2021/01/04 15:59:40;;;;;;;13.40;7.78;;;;;;;;;;6075625;29;20104;-69
2021/01/04 16:02:42;;;;;;;10.98;8.00;;;;;;;;;;6076451;29;20045;-69
2021/01/04 16:05:43;;;;;;;13.13;8.38;;;;;;;;;;6067961;29;20060;-73
2021/01/04 16:08:45;;;;;;;15.00;8.52;;;;;;;;;;6069273;29;20044;-70
2021/01/04 16:11:46;;;;;;;12.02;8.70;;;;;;;;;;6066656;29;20147;-72
2021/01/04 16:14:49;;;;;;;10.95;8.10;;;;;;;;;;6072891;29;20051;-70
2021/01/04 16:17:50;;;;;;;11.25;8.50;;;;;;;;;;6070764;29;20105;-70
2021/01/04 16:20:51;;;;;;;12.32;8.60;;;;;;;;;;6067847;29;20173;-70
2021/01/04 16:23:53;;;;;;;13.45;9.23;;;;;;;;;;6067742;29;20500;-69
2021/01/04 16:26:54;;;;;;;15.15;9.60;;;;;;;;;;6070063;29;20484;-70
2021/01/04 16:29:55;;;;;;;12.23;9.63;;;;;;;;;;6075261;29;20052;-69
2021/01/04 16:32:56;;;;;;;15.18;9.38;;;;;;;;;;6066262;29;20056;-71
2021/01/04 16:35:58;;;;;;;17.08;11.18;;;;;;;;;;6067683;29;20183;-69
2021/01/04 16:39:00;;;;;;;12.77;10.25;;;;;;;;;;6068580;29;20060;-69
2021/01/04 16:42:06;;;;;;;14.35;10.27;;;;;;;;;;6069600;29;20127;-70
2021/01/04 16:45:08;;;;;;;13.90;10.18;;;;;;;;;;6067720;29;20480;-72
2021/01/04 16:48:09;;;;;;;15.00;10.80;;;;;;;;;;6070654;29;20135;-69
2021/01/04 16:51:11;;;;;;;18.15;12.13;;;;;;;;;;6071817;29;20063;-71
2021/01/04 16:54:14;;;;;;;16.20;11.68;;;;;;;;;;6074209;29;20045;-68
2021/01/04 16:57:16;;;;;;;17.77;11.68;;;;;;;;;;6072511;29;20140;-69
2021/01/04 17:00:18;;;;;;;16.10;11.80;;;;;;;;;;6072875;29;20052;-68
2021/01/04 17:03:19;;;;;;;17.08;12.55;;;;;;;;;;6072751;29;20056;-68
2021/01/04 17:06:20;;;;;;;19.38;13.43;;;;;;;;;;6070435;29;20095;-69
2021/01/04 17:09:24;;;;;;;15.95;11.98;;;;;;;;;;6067408;29;20476;-68
2021/01/04 17:12:26;;;;;;;19.38;13.32;;;;;;;;;;6075491;29;20076;-68
2021/01/04 17:15:27;;;;;;;16.83;13.43;;;;;;;;;;6074627;29;20062;-69
2021/01/04 17:18:28;;;;;;;18.20;13.25;;;;;;;;;;6073759;29;20056;-69
2021/01/04 17:21:31;;;;;;;18.90;13.85;;;;;;;;;;6069625;29;20528;-68
2021/01/04 17:24:33;;;;;;;19.52;14.25;;;;;;;;;;6065706;29;20368;-67
2021/01/04 17:27:34;;;;;;;18.92;14.05;;;;;;;;;;6067561;29;20059;-68
2021/01/04 17:30:35;;;;;;;24.40;15.75;;;;;;;;;;6066488;29;20064;-69
2021/01/04 17:33:36;;;;;;;21.98;15.60;;;;;;;;;;6068848;29;20126;-69
2021/01/04 17:36:37;;;;;;;23.00;16.00;;;;;;;;;;6066525;29;20052;-68
2021/01/04 17:39:39;;;;;;;23.63;16.40;;;;;;;;;;6068448;29;20075;-68
2021/01/04 17:42:41;;;;;;;26.67;17.88;;;;;;;;;;6062224;29;20080;-69
2021/01/04 17:45:42;;;;;;;26.17;18.83;;;;;;;;;;6063733;29;20055;-69
2021/01/04 17:48:43;;;;;;;23.92;17.20;;;;;;;;;;6071655;29;20048;-69
2021/01/04 17:51:47;;;;;;;29.30;17.35;;;;;;;;;;6064683;29;20144;-70
2021/01/04 17:54:49;;;;;;;27.08;17.98;;;;;;;;;;6063493;29;20144;-73
2021/01/04 17:57:50;;;;;;;28.35;18.88;;;;;;;;;;6069444;29;20532;-73
2021/01/04 18:00:52;;;;;;;30.90;18.00;;;;;;;;;;6066549;29;20048;-69
2021/01/04 18:03:53;;;;;;;28.90;19.17;;;;;;;;;;6070485;29;20049;-71
2021/01/04 18:06:54;;;;;;;28.63;18.83;;;;;;;;;;6058095;29;20055;-70
2021/01/04 18:09:56;;;;;;;27.88;18.25;;;;;;;;;;6076694;29;20131;-68
2021/01/04 18:12:57;;;;;;;33.30;20.80;;;;;;;;;;6067246;29;20127;-71
2021/01/04 18:15:58;;;;;;;27.88;19.25;;;;;;;;;;6072414;29;20048;-72
2021/01/04 18:19:00;;;;;;;29.33;20.63;;;;;;;;;;6056363;29;20068;-73
2021/01/04 18:22:02;;;;;;;30.80;20.50;;;;;;;;;;6071310;29;20061;-69
2021/01/04 18:25:06;;;;;;;33.33;19.23;;;;;;;;;;6068136;29;20044;-70
2021/01/04 18:28:07;;;;;;;35.67;20.98;;;;;;;;;;6073242;29;20080;-70